Time;durP1;ratioP1;P1;durP2;ratioP2;P2;SDS_P1;SDS_P2;PMS_P1;PMS_P2;Temp;Humidity;BMP_temperature;BMP_pressure;BME280_temperature;BME280_humidity;BME280_pressure;Samples;Min_cycle;Max_cycle;Signal;HPM_P1;HPM_P2
2023/09/19 00:02:04;;;;;;;0.43;0.43;;;14.90;99.90;;;;;;5054318;28;20080;-74
2023/09/19 00:04:34;;;;;;;0.40;0.40;;;14.80;99.90;;;;;;5060724;28;20052;-74
2023/09/19 00:07:02;;;;;;;0.30;0.30;;;14.80;99.90;;;;;;5058107;28;20044;-74
2023/09/19 00:09:28;;;;;;;0.30;0.30;;;14.70;99.90;;;;;;5062599;28;20094;-74
2023/09/19 00:11:53;;;;;;;0.30;0.30;;;14.70;99.90;;;;;;5050472;28;20112;-74
2023/09/19 00:14:19;;;;;;;0.70;0.70;;;14.60;99.90;;;;;;5053571;28;20776;-74
2023/09/19 00:16:46;;;;;;;0.52;0.52;;;14.60;99.90;;;;;;5046377;28;20095;-74
2023/09/19 00:19:13;;;;;;;0.50;0.50;;;14.50;99.90;;;;;;5050430;28;20109;-74
2023/09/19 00:21:40;;;;;;;0.38;0.38;;;14.50;99.90;;;;;;5059409;28;20063;-74
2023/09/19 00:24:06;;;;;;;0.40;0.40;;;14.50;99.90;;;;;;5045109;28;20553;-74
2023/09/19 00:26:34;;;;;;;4.05;0.60;;;14.40;99.90;;;;;;5045584;28;20509;-74
2023/09/19 00:29:05;;;;;;;0.40;0.40;;;14.30;99.90;;;;;;5048635;28;20063;-74
2023/09/19 00:31:31;;;;;;;0.30;0.30;;;14.30;99.90;;;;;;5047060;28;20140;-73
2023/09/19 00:34:02;;;;;;;0.30;0.30;;;14.20;99.90;;;;;;5042958;28;20152;-73
2023/09/19 00:36:29;;;;;;;0.40;0.40;;;14.20;99.90;;;;;;5049678;28;20052;-74
2023/09/19 00:38:54;;;;;;;0.40;0.40;;;14.20;99.90;;;;;;5062213;28;20060;-73
2023/09/19 00:41:21;;;;;;;0.30;0.30;;;14.10;99.90;;;;;;5056566;28;20119;-73
2023/09/19 00:43:47;;;;;;;0.50;0.50;;;14.10;99.90;;;;;;5039136;28;20062;-74
2023/09/19 00:46:17;;;;;;;0.40;0.40;;;14.00;99.90;;;;;;5048654;28;20048;-73
2023/09/19 00:48:44;;;;;;;0.40;0.40;;;14.00;99.90;;;;;;5053174;28;20132;-73
2023/09/19 00:51:10;;;;;;;0.50;0.50;;;13.90;99.90;;;;;;5046975;28;20140;-73
2023/09/19 00:53:38;;;;;;;0.73;0.73;;;13.90;99.90;;;;;;5049624;28;20494;-73
2023/09/19 00:56:07;;;;;;;0.40;0.40;;;13.90;99.90;;;;;;5058514;28;20048;-74
2023/09/19 00:58:35;;;;;;;0.30;0.30;;;13.80;99.90;;;;;;5047391;28;20131;-74
2023/09/19 01:01:01;;;;;;;0.60;0.60;;;13.80;99.90;;;;;;5051951;28;20044;-74
2023/09/19 01:03:28;;;;;;;0.40;0.40;;;13.70;99.90;;;;;;5051745;28;20345;-74
2023/09/19 01:05:54;;;;;;;0.30;0.30;;;13.70;99.90;;;;;;5044660;28;20049;-73
2023/09/19 01:08:19;;;;;;;0.40;0.40;;;13.70;99.90;;;;;;5053104;28;20033;-73
2023/09/19 01:11:17;;;;;;;0.30;0.30;;;13.60;99.90;;;;;;5045701;28;20102;-73
2023/09/19 01:13:57;;;;;;;0.30;0.30;;;13.60;99.90;;;;;;5038341;28;20132;-74
2023/09/19 01:16:42;;;;;;;0.30;0.30;;;13.50;99.90;;;;;;5044760;28;20056;-74
2023/09/19 01:19:27;;;;;;;0.30;0.30;;;13.50;99.90;;;;;;5047711;28;20040;-74
2023/09/19 01:22:22;;;;;;;0.30;0.30;;;13.50;99.90;;;;;;5056884;28;20040;-73
2023/09/19 01:25:06;;;;;;;0.68;0.68;;;13.50;99.90;;;;;;5053086;28;20049;-73
2023/09/19 01:27:50;;;;;;;0.30;0.30;;;13.50;99.90;;;;;;5044738;28;20056;-74
2023/09/19 01:30:22;;;;;;;0.40;0.40;;;13.50;99.90;;;;;;5049339;28;20048;-74
2023/09/19 01:32:52;;;;;;;0.35;0.35;;;13.40;99.90;;;;;;5046621;28;20064;-73
2023/09/19 01:35:18;;;;;;;0.57;0.57;;;13.40;99.90;;;;;;5047755;28;20036;-74
2023/09/19 01:37:44;;;;;;;0.30;0.30;;;13.40;99.90;;;;;;5047217;28;20120;-74
2023/09/19 01:40:16;;;;;;;0.30;0.30;;;13.40;99.90;;;;;;5052398;28;20401;-74
2023/09/19 01:43:12;;;;;;;0.40;0.40;;;13.40;99.90;;;;;;5049218;28;20108;-74
2023/09/19 01:45:48;;;;;;;0.40;0.40;;;13.40;99.90;;;;;;5052426;28;20053;-74
2023/09/19 01:48:18;;;;;;;0.40;0.40;;;13.40;99.90;;;;;;5059172;28;20077;-74
2023/09/19 01:51:03;;;;;;;0.50;0.50;;;13.30;99.90;;;;;;5047309;28;20084;-74
2023/09/19 01:54:02;;;;;;;0.30;0.30;;;13.30;99.90;;;;;;5023360;28;20086;-74
2023/09/19 01:56:39;;;;;;;0.50;0.50;;;13.30;99.90;;;;;;5039728;28;20041;-74
2023/09/19 01:59:23;;;;;;;0.30;0.30;;;13.30;99.90;;;;;;5047247;28;20525;-74
2023/09/19 02:01:51;;;;;;;0.30;0.30;;;13.30;99.90;;;;;;5059893;28;20049;-74
2023/09/19 02:04:17;;;;;;;0.82;0.82;;;13.30;99.90;;;;;;5065600;28;20045;-73
2023/09/19 02:06:43;;;;;;;0.57;0.57;;;13.30;99.90;;;;;;5062989;28;20048;-74
2023/09/19 02:09:09;;;;;;;0.30;0.30;;;13.20;99.90;;;;;;5063641;28;20101;-74
2023/09/19 02:11:36;;;;;;;0.30;0.30;;;13.20;99.90;;;;;;5061793;28;20532;-74
2023/09/19 02:14:02;;;;;;;0.40;0.40;;;13.20;99.90;;;;;;5067571;28;20048;-74
2023/09/19 02:16:28;;;;;;;0.40;0.40;;;13.20;99.90;;;;;;5058739;28;20052;-74
2023/09/19 02:18:54;;;;;;;0.30;0.30;;;13.10;99.90;;;;;;5039091;28;20045;-74
2023/09/19 02:21:21;;;;;;;0.30;0.30;;;13.20;99.90;;;;;;5051450;28;20045;-73
2023/09/19 02:23:47;;;;;;;0.40;0.40;;;13.10;99.90;;;;;;5053287;28;20060;-74
2023/09/19 02:26:13;;;;;;;0.73;0.73;;;13.10;99.90;;;;;;5056815;28;20053;-74
2023/09/19 02:28:39;;;;;;;0.30;0.30;;;13.10;99.90;;;;;;5057628;28;20127;-74
2023/09/19 02:31:05;;;;;;;0.32;0.32;;;13.10;99.90;;;;;;5055001;28;20095;-74
2023/09/19 02:33:35;;;;;;;0.35;0.35;;;13.10;99.90;;;;;;5047454;28;20053;-74
2023/09/19 02:36:03;;;;;;;0.68;0.68;;;13.10;99.90;;;;;;5049540;28;20091;-74
2023/09/19 02:38:29;;;;;;;0.40;0.40;;;13.00;99.90;;;;;;5052346;28;20046;-74
2023/09/19 02:40:55;;;;;;;0.20;0.20;;;13.00;99.90;;;;;;5052470;28;20103;-73
2023/09/19 02:43:21;;;;;;;0.40;0.40;;;13.00;99.90;;;;;;5059138;28;20041;-73
2023/09/19 02:45:53;;;;;;;0.63;0.63;;;13.00;99.90;;;;;;5059247;28;20111;-74
2023/09/19 02:48:19;;;;;;;0.40;0.40;;;13.00;99.90;;;;;;5042224;28;20045;-74
2023/09/19 02:50:44;;;;;;;0.50;0.50;;;13.00;99.90;;;;;;5052253;28;20048;-74
2023/09/19 02:53:12;;;;;;;0.30;0.30;;;12.90;99.90;;;;;;5055833;28;20037;-73
2023/09/19 02:55:40;;;;;;;0.20;0.20;;;13.00;99.90;;;;;;5048532;28;20107;-74
2023/09/19 02:58:07;;;;;;;0.32;0.32;;;12.90;99.90;;;;;;5059584;28;20045;-74
2023/09/19 03:00:35;;;;;;;0.63;0.63;;;12.90;99.90;;;;;;5057354;28;20106;-74
2023/09/19 03:03:01;;;;;;;0.85;0.57;;;12.90;99.90;;;;;;5050751;28;20127;-74
2023/09/19 03:05:30;;;;;;;0.40;0.40;;;12.90;99.90;;;;;;5055520;28;20049;-74
2023/09/19 03:07:56;;;;;;;0.60;0.60;;;12.90;99.90;;;;;;5056821;28;20474;-73
2023/09/19 03:10:22;;;;;;;1.50;0.40;;;12.90;99.90;;;;;;5053479;28;20131;-73
2023/09/19 03:12:49;;;;;;;0.40;0.40;;;12.90;99.90;;;;;;5054064;28;20056;-74
2023/09/19 03:15:16;;;;;;;0.50;0.50;;;12.80;99.90;;;;;;5044713;28;20103;-74
2023/09/19 03:17:47;;;;;;;0.60;0.60;;;12.90;99.90;;;;;;5059373;28;20049;-74
2023/09/19 03:20:13;;;;;;;0.75;0.75;;;12.80;99.90;;;;;;5050815;28;20037;-74
2023/09/19 03:22:40;;;;;;;0.68;0.45;;;12.80;99.90;;;;;;5056706;28;20053;-74
2023/09/19 03:25:07;;;;;;;0.30;0.30;;;12.80;99.90;;;;;;5051487;28;20061;-73
2023/09/19 03:27:36;;;;;;;0.40;0.40;;;12.80;99.90;;;;;;5050255;28;20052;-74
2023/09/19 03:30:07;;;;;;;0.40;0.40;;;12.80;99.90;;;;;;5048504;28;20509;-74
2023/09/19 03:32:34;;;;;;;0.90;0.90;;;12.80;99.90;;;;;;5060338;28;20049;-74
2023/09/19 03:35:01;;;;;;;0.50;0.50;;;12.80;99.90;;;;;;5051394;28;20386;-73
2023/09/19 03:37:27;;;;;;;0.38;0.38;;;12.80;99.90;;;;;;5057998;28;20052;-74
2023/09/19 03:39:52;;;;;;;0.35;0.35;;;12.80;99.90;;;;;;5056657;28;20061;-74
2023/09/19 03:42:25;;;;;;;0.50;0.50;;;12.70;99.90;;;;;;5066248;28;20427;-73
2023/09/19 03:44:51;;;;;;;0.38;0.38;;;12.70;99.90;;;;;;5048438;28;20049;-73
2023/09/19 03:47:18;;;;;;;0.55;0.55;;;12.70;99.90;;;;;;5054763;28;20056;-73
2023/09/19 03:49:45;;;;;;;0.40;0.40;;;12.70;99.90;;;;;;5056786;28;20103;-74
2023/09/19 03:52:11;;;;;;;0.57;0.57;;;12.70;99.90;;;;;;5058888;28;20044;-73
2023/09/19 03:54:36;;;;;;;0.30;0.30;;;12.70;99.90;;;;;;5061247;28;20452;-74
2023/09/19 03:57:04;;;;;;;0.50;0.50;;;12.70;99.90;;;;;;5058353;28;20056;-73
2023/09/19 03:59:29;;;;;;;0.55;0.55;;;12.70;99.90;;;;;;5057139;28;20111;-74
2023/09/19 04:01:57;;;;;;;0.65;0.65;;;12.70;99.90;;;;;;5057947;28;20429;-73
2023/09/19 04:04:24;;;;;;;0.40;0.40;;;12.70;99.90;;;;;;5050582;28;20049;-74
2023/09/19 04:06:50;;;;;;;0.40;0.40;;;12.70;99.90;;;;;;5058735;28;20057;-74
2023/09/19 04:09:16;;;;;;;0.70;0.70;;;12.70;99.90;;;;;;5058376;28;20091;-74
2023/09/19 04:11:42;;;;;;;0.30;0.30;;;12.80;99.90;;;;;;5054566;28;20114;-73
2023/09/19 04:14:07;;;;;;;0.30;0.30;;;12.80;99.90;;;;;;5058796;28;20210;-74
2023/09/19 04:16:33;;;;;;;0.35;0.35;;;12.80;99.90;;;;;;5052146;28;20783;-74
2023/09/19 04:18:59;;;;;;;0.40;0.40;;;12.80;99.90;;;;;;5049437;28;20469;-74
2023/09/19 04:21:25;;;;;;;0.30;0.30;;;12.80;99.90;;;;;;5047656;28;20154;-74
2023/09/19 04:23:51;;;;;;;0.43;0.43;;;12.80;99.90;;;;;;5055063;28;20060;-73
2023/09/19 04:26:17;;;;;;;0.40;0.40;;;12.80;99.90;;;;;;5049682;28;20048;-73
2023/09/19 04:28:43;;;;;;;0.40;0.40;;;12.80;99.90;;;;;;5060167;28;20044;-73
2023/09/19 04:31:11;;;;;;;0.40;0.40;;;12.80;99.90;;;;;;5054153;28;20114;-74
2023/09/19 04:33:38;;;;;;;0.30;0.30;;;12.80;99.90;;;;;;5053634;28;20049;-73
2023/09/19 04:36:07;;;;;;;1.65;1.05;;;12.80;99.90;;;;;;5052882;28;20915;-73
2023/09/19 04:38:33;;;;;;;0.50;0.50;;;12.80;99.90;;;;;;5059687;28;20063;-74
2023/09/19 04:40:59;;;;;;;0.38;0.38;;;12.80;99.90;;;;;;5044485;28;20041;-73
2023/09/19 04:43:25;;;;;;;0.30;0.30;;;12.80;99.90;;;;;;5045553;28;20040;-73
2023/09/19 04:45:51;;;;;;;0.50;0.50;;;12.90;99.90;;;;;;5058354;28;20052;-73
2023/09/19 04:48:17;;;;;;;1.25;1.15;;;12.90;99.90;;;;;;5052273;28;20048;-73
2023/09/19 04:50:44;;;;;;;0.50;0.50;;;13.00;99.90;;;;;;5047127;28;20072;-73
2023/09/19 04:53:09;;;;;;;0.30;0.30;;;13.00;99.90;;;;;;5057133;28;20063;-73
2023/09/19 04:55:36;;;;;;;0.35;0.35;;;13.00;99.90;;;;;;5045808;28;20406;-73
2023/09/19 04:58:02;;;;;;;0.40;0.40;;;13.10;99.90;;;;;;5051386;28;20248;-73
2023/09/19 05:00:30;;;;;;;0.50;0.50;;;13.10;99.90;;;;;;5045570;28;20574;-72
2023/09/19 05:02:56;;;;;;;0.30;0.30;;;13.10;99.90;;;;;;5047737;28;20086;-73
2023/09/19 05:05:23;;;;;;;0.35;0.35;;;13.10;99.90;;;;;;5050183;28;20060;-72
2023/09/19 05:07:50;;;;;;;0.75;0.63;;;13.20;99.90;;;;;;5042901;28;20049;-73
2023/09/19 05:10:18;;;;;;;0.35;0.35;;;13.20;99.90;;;;;;5040573;28;20059;-73
2023/09/19 05:12:47;;;;;;;0.30;0.30;;;13.20;99.90;;;;;;5036101;28;20107;-73
2023/09/19 05:15:14;;;;;;;0.45;0.45;;;13.20;99.90;;;;;;5053558;28;20049;-74
2023/09/19 05:17:40;;;;;;;0.55;0.55;;;13.30;99.90;;;;;;5046768;28;20071;-74
2023/09/19 05:20:14;;;;;;;0.45;0.45;;;13.30;99.90;;;;;;5056684;28;20049;-73
2023/09/19 05:22:40;;;;;;;0.40;0.40;;;13.30;99.90;;;;;;5042312;28;20106;-74
2023/09/19 05:25:07;;;;;;;0.50;0.50;;;13.30;99.90;;;;;;5043424;28;20545;-74
2023/09/19 05:27:36;;;;;;;0.20;0.20;;;13.30;99.90;;;;;;5046583;28;20059;-74
2023/09/19 05:30:01;;;;;;;;;;;13.30;99.90;;;;;;5043219;28;20045;-74
2023/09/19 05:32:27;;;;;;;0.40;0.40;;;13.30;99.90;;;;;;5047856;28;19924;-74
2023/09/19 05:34:53;;;;;;;0.30;0.30;;;13.30;99.90;;;;;;5045156;28;20110;-74
2023/09/19 05:37:19;;;;;;;0.30;0.30;;;13.30;99.90;;;;;;5053262;28;20055;-74
2023/09/19 05:39:45;;;;;;;0.50;0.50;;;13.30;99.90;;;;;;5054129;28;20060;-74
2023/09/19 05:42:11;;;;;;;0.73;0.73;;;13.30;99.90;;;;;;5054947;28;20059;-74
2023/09/19 05:44:36;;;;;;;0.30;0.30;;;13.30;99.90;;;;;;5054885;28;20045;-74
2023/09/19 05:47:05;;;;;;;0.30;0.30;;;13.30;99.90;;;;;;5067154;28;20045;-74
2023/09/19 05:49:30;;;;;;;0.65;0.65;;;13.30;99.90;;;;;;5051640;28;20158;-73
2023/09/19 05:51:58;;;;;;;0.30;0.30;;;13.30;99.90;;;;;;5055803;28;20057;-74
2023/09/19 05:54:24;;;;;;;0.38;0.38;;;13.30;99.90;;;;;;5060596;28;20493;-75
2023/09/19 05:56:52;;;;;;;2.60;1.50;;;13.30;99.90;;;;;;5054972;28;20040;-74
2023/09/19 05:59:19;;;;;;;;;;;13.30;99.90;;;;;;5058220;28;20059;-75
2023/09/19 06:01:46;;;;;;;0.30;0.30;;;13.20;99.90;;;;;;5024046;28;20742;-74
2023/09/19 06:04:11;;;;;;;1.85;0.75;;;13.30;99.90;;;;;;5050620;28;20056;-74
2023/09/19 06:06:39;;;;;;;0.40;0.40;;;13.30;99.90;;;;;;5058990;28;20048;-74
2023/09/19 06:09:08;;;;;;;0.50;0.50;;;13.30;99.90;;;;;;5054347;28;20057;-74
2023/09/19 06:11:37;;;;;;;0.40;0.40;;;13.30;99.90;;;;;;5048753;28;20088;-74
2023/09/19 06:14:03;;;;;;;0.65;0.65;;;13.30;99.90;;;;;;5052371;28;20522;-75
2023/09/19 06:16:32;;;;;;;0.50;0.50;;;13.30;99.90;;;;;;5051701;28;20417;-73
2023/09/19 06:19:01;;;;;;;0.40;0.40;;;13.30;99.90;;;;;;5048366;28;20051;-74
2023/09/19 06:21:27;;;;;;;0.73;0.73;;;13.30;99.90;;;;;;5059302;28;20091;-74
2023/09/19 06:23:53;;;;;;;0.30;0.30;;;13.20;99.90;;;;;;5056678;28;20088;-74
2023/09/19 06:26:19;;;;;;;0.30;0.30;;;13.20;99.90;;;;;;5057915;28;20425;-74
2023/09/19 06:28:45;;;;;;;1.38;0.60;;;13.30;99.90;;;;;;5047410;28;20053;-74
2023/09/19 06:31:11;;;;;;;0.40;0.40;;;13.30;99.90;;;;;;5049105;28;20056;-75
2023/09/19 06:33:39;;;;;;;0.43;0.43;;;13.30;99.90;;;;;;5044277;28;20067;-74
2023/09/19 06:36:05;;;;;;;0.32;0.32;;;13.40;99.90;;;;;;5048721;28;20055;-74
2023/09/19 06:38:34;;;;;;;0.50;0.50;;;13.40;99.90;;;;;;5064425;28;20060;-74
2023/09/19 06:41:01;;;;;;;0.30;0.30;;;13.50;99.90;;;;;;5049734;28;20132;-75
2023/09/19 06:43:28;;;;;;;0.30;0.30;;;13.50;99.90;;;;;;5046955;28;20071;-74
2023/09/19 06:45:54;;;;;;;0.55;0.55;;;13.60;99.90;;;;;;5054675;28;20049;-74
2023/09/19 06:48:21;;;;;;;0.40;0.40;;;13.60;99.90;;;;;;5052934;28;20559;-73
2023/09/19 06:50:48;;;;;;;0.60;0.60;;;13.70;99.90;;;;;;5052142;28;20141;-74
2023/09/19 06:53:14;;;;;;;0.50;0.50;;;13.70;99.90;;;;;;5048386;28;20049;-74
2023/09/19 06:55:40;;;;;;;0.40;0.40;;;13.70;99.90;;;;;;5049450;28;20052;-74
2023/09/19 06:58:06;;;;;;;1.85;1.30;;;13.80;99.90;;;;;;5051456;28;20494;-74
2023/09/19 07:00:36;;;;;;;2.95;1.02;;;13.80;99.90;;;;;;5056271;28;20048;-74
2023/09/19 07:03:04;;;;;;;0.70;0.70;;;13.80;99.90;;;;;;5046989;28;20045;-73
2023/09/19 07:05:37;;;;;;;0.63;0.63;;;13.90;99.90;;;;;;5055520;28;20043;-73
2023/09/19 07:08:03;;;;;;;0.40;0.40;;;13.90;99.90;;;;;;5057065;28;20094;-73
2023/09/19 07:10:29;;;;;;;0.50;0.50;;;14.00;99.90;;;;;;5055115;28;20040;-73
2023/09/19 07:12:57;;;;;;;0.32;0.32;;;14.00;99.90;;;;;;5044326;28;20259;-73
2023/09/19 07:15:24;;;;;;;;;;;14.00;99.90;;;;;;5043671;28;20529;-73
2023/09/19 07:17:54;;;;;;;0.70;0.70;;;14.00;99.90;;;;;;5054816;28;19920;-73
2023/09/19 07:20:20;;;;;;;0.30;0.30;;;14.10;99.90;;;;;;5055085;28;20114;-73
2023/09/19 07:22:47;;;;;;;0.50;0.50;;;14.10;99.90;;;;;;5053062;28;20553;-73
2023/09/19 07:25:14;;;;;;;0.25;0.25;;;14.10;99.90;;;;;;5047481;28;20111;-73
2023/09/19 07:27:43;;;;;;;0.40;0.40;;;14.20;99.90;;;;;;5042165;28;20607;-73
2023/09/19 07:30:11;;;;;;;0.47;0.47;;;14.30;99.90;;;;;;5047361;28;20048;-74
2023/09/19 07:32:38;;;;;;;0.47;0.47;;;14.30;99.90;;;;;;5039499;28;20460;-73
2023/09/19 07:35:07;;;;;;;0.45;0.45;;;14.40;99.90;;;;;;5051929;28;20051;-74
2023/09/19 07:37:34;;;;;;;1.48;1.05;;;14.40;99.90;;;;;;5054137;28;20493;-73
2023/09/19 07:40:09;;;;;;;0.65;0.65;;;14.50;99.90;;;;;;5049839;28;20041;-73
2023/09/19 07:42:40;;;;;;;0.80;0.70;;;14.60;99.90;;;;;;5057529;28;20048;-75
2023/09/19 07:45:07;;;;;;;0.57;0.57;;;14.70;99.90;;;;;;5059175;28;20056;-73
2023/09/19 07:47:34;;;;;;;5.57;0.77;;;14.60;99.90;;;;;;5054690;28;20056;-73
2023/09/19 07:50:02;;;;;;;1.05;0.88;;;14.70;99.90;;;;;;5027127;28;20049;-72
2023/09/19 07:52:28;;;;;;;0.30;0.30;;;14.60;99.90;;;;;;5045187;28;20445;-73
2023/09/19 07:54:55;;;;;;;0.30;0.30;;;14.60;99.90;;;;;;5051514;28;20115;-72
2023/09/19 07:57:20;;;;;;;0.50;0.50;;;14.60;99.90;;;;;;5050147;28;20091;-72
2023/09/19 07:59:46;;;;;;;0.73;0.73;;;14.60;99.90;;;;;;5049284;28;20087;-72
2023/09/19 08:02:16;;;;;;;0.35;0.35;;;14.60;99.90;;;;;;5062723;28;20041;-73
2023/09/19 08:04:46;;;;;;;0.30;0.30;;;14.60;99.90;;;;;;5048678;28;20060;-73
2023/09/19 08:07:13;;;;;;;0.40;0.40;;;14.70;99.90;;;;;;5045587;28;20440;-72
2023/09/19 08:09:39;;;;;;;0.45;0.45;;;14.80;99.90;;;;;;5049827;28;20082;-73
2023/09/19 08:12:08;;;;;;;0.32;0.32;;;15.00;99.90;;;;;;5050267;28;20048;-72
2023/09/19 08:14:33;;;;;;;;;;;15.10;99.90;;;;;;5057780;28;20045;-73
2023/09/19 08:17:00;;;;;;;2.35;0.70;;;15.30;99.90;;;;;;5062647;28;19924;-73
2023/09/19 08:19:31;;;;;;;0.50;0.50;;;15.40;99.90;;;;;;5047489;28;20076;-73
2023/09/19 08:22:00;;;;;;;0.32;0.32;;;15.40;99.90;;;;;;5040995;28;20124;-72
2023/09/19 08:24:28;;;;;;;0.55;0.55;;;15.50;99.90;;;;;;5045525;28;20494;-73
2023/09/19 08:26:55;;;;;;;0.60;0.60;;;15.50;99.90;;;;;;5045812;28;20494;-72
2023/09/19 08:29:21;;;;;;;0.35;0.35;;;15.60;99.90;;;;;;5047410;28;20048;-72
2023/09/19 08:31:49;;;;;;;0.30;0.30;;;15.70;99.90;;;;;;5052050;28;20049;-72
2023/09/19 08:34:15;;;;;;;0.30;0.30;;;15.80;99.90;;;;;;5040584;28;20394;-72
2023/09/19 08:36:44;;;;;;;0.88;0.88;;;15.90;99.90;;;;;;5054753;28;20041;-72
2023/09/19 08:39:11;;;;;;;0.95;0.77;;;16.00;99.90;;;;;;5059417;28;20097;-72
2023/09/19 08:41:36;;;;;;;1.10;0.43;;;16.10;99.90;;;;;;5051152;28;20044;-73
2023/09/19 08:44:03;;;;;;;0.20;0.20;;;16.10;99.90;;;;;;5050991;28;20087;-72
2023/09/19 08:46:33;;;;;;;0.30;0.30;;;16.20;99.90;;;;;;5051689;28;20052;-72
2023/09/19 08:49:05;;;;;;;0.40;0.40;;;16.30;99.90;;;;;;5045226;28;20055;-72
2023/09/19 08:51:48;;;;;;;0.45;0.45;;;16.30;99.90;;;;;;5047428;28;20041;-73
2023/09/19 08:54:26;;;;;;;0.85;0.85;;;16.40;99.90;;;;;;5053997;28;20048;-72
2023/09/19 08:56:54;;;;;;;0.30;0.30;;;16.50;99.90;;;;;;5051710;28;20037;-72
2023/09/19 08:59:24;;;;;;;0.40;0.35;;;16.50;99.90;;;;;;5047041;28;20493;-74
2023/09/19 09:01:53;;;;;;;0.40;0.40;;;16.60;99.90;;;;;;5050980;28;20083;-74
2023/09/19 09:04:20;;;;;;;0.60;0.60;;;16.70;99.90;;;;;;5054874;28;20052;-74
2023/09/19 09:06:49;;;;;;;0.40;0.40;;;16.70;99.90;;;;;;5041372;28;20052;-73
2023/09/19 09:09:15;;;;;;;0.40;0.40;;;16.90;99.90;;;;;;5053030;28;20048;-72
2023/09/19 09:11:41;;;;;;;0.40;0.40;;;16.90;99.90;;;;;;5055755;28;20063;-72
2023/09/19 09:14:07;;;;;;;0.77;0.77;;;17.00;99.90;;;;;;5051897;28;20045;-72
2023/09/19 09:16:34;;;;;;;0.40;0.40;;;17.00;99.90;;;;;;5047850;28;20129;-72
2023/09/19 09:19:00;;;;;;;0.70;0.70;;;17.00;99.90;;;;;;5048626;28;20873;-72
2023/09/19 09:21:26;;;;;;;1.38;1.33;;;17.10;99.90;;;;;;5054399;28;20142;-72
2023/09/19 09:23:53;;;;;;;0.35;0.35;;;17.10;99.90;;;;;;5049118;28;20048;-72
2023/09/19 09:26:41;;;;;;;0.93;0.93;;;17.10;99.90;;;;;;5048307;28;20136;-72
2023/09/19 09:29:06;;;;;;;0.63;0.63;;;17.20;99.90;;;;;;5049933;28;20087;-72
2023/09/19 09:31:32;;;;;;;0.40;0.40;;;17.20;99.90;;;;;;5050008;28;20152;-72
2023/09/19 09:33:58;;;;;;;0.38;0.38;;;17.30;99.90;;;;;;5054080;28;20101;-72
2023/09/19 09:36:41;;;;;;;0.40;0.40;;;17.40;99.90;;;;;;5056295;28;20915;-72
2023/09/19 09:39:24;;;;;;;0.55;0.55;;;17.50;99.90;;;;;;5027496;28;20060;-71
2023/09/19 09:41:50;;;;;;;0.43;0.43;;;17.50;99.90;;;;;;5057427;28;20045;-71
2023/09/19 09:44:19;;;;;;;0.77;0.77;;;17.60;99.90;;;;;;5055846;28;20106;-71
2023/09/19 09:49:33;;;;;;;0.60;0.60;;;17.80;99.90;;;;;;5043068;28;20119;-72
2023/09/19 09:52:16;;;;;;;0.60;0.60;;;17.80;99.90;;;;;;5043813;28;20045;-71
2023/09/19 09:55:00;;;;;;;1.10;0.90;;;17.90;99.90;;;;;;5061794;28;20414;-72
2023/09/19 09:57:26;;;;;;;0.30;0.30;;;18.00;99.90;;;;;;5037049;28;20106;-72
2023/09/19 09:59:53;;;;;;;0.70;0.70;;;18.10;99.90;;;;;;5060863;28;20041;-71
2023/09/19 10:02:32;;;;;;;0.32;0.32;;;18.10;99.90;;;;;;5047002;28;20045;-71
2023/09/19 10:05:14;;;;;;;0.40;0.40;;;18.30;99.90;;;;;;5042149;28;20049;-71
2023/09/19 10:07:49;;;;;;;0.50;0.50;;;18.40;99.90;;;;;;5033779;28;20060;-72
2023/09/19 10:10:38;;;;;;;0.40;0.40;;;18.50;99.90;;;;;;5050854;28;20510;-72
2023/09/19 10:13:07;;;;;;;0.40;0.40;;;18.50;99.90;;;;;;5050174;28;20105;-71
2023/09/19 10:15:33;;;;;;;0.50;0.50;;;18.50;99.90;;;;;;5045822;28;20076;-71
2023/09/19 10:18:08;;;;;;;2.70;1.52;;;18.50;99.90;;;;;;5051721;28;20049;-72
2023/09/19 10:20:36;;;;;;;0.40;0.40;;;18.60;99.90;;;;;;5046079;28;20056;-71
2023/09/19 10:23:12;;;;;;;1.02;1.02;;;18.60;99.90;;;;;;5047690;28;20107;-71
2023/09/19 10:25:39;;;;;;;0.43;0.43;;;18.70;99.90;;;;;;5042035;28;20060;-72
2023/09/19 10:28:14;;;;;;;3.33;1.38;;;18.80;99.90;;;;;;5054498;28;20524;-74
2023/09/19 10:30:47;;;;;;;7.00;1.75;;;18.80;99.90;;;;;;5049549;28;20048;-71
2023/09/19 10:33:14;;;;;;;0.57;0.57;;;18.90;99.90;;;;;;5050807;28;20098;-72
2023/09/19 10:35:46;;;;;;;0.90;0.90;;;18.90;99.90;;;;;;5055587;28;20118;-71
2023/09/19 10:38:14;;;;;;;0.45;0.45;;;19.00;99.90;;;;;;5063935;28;20447;-71
2023/09/19 10:40:46;;;;;;;;;;;19.00;99.90;;;;;;5058718;28;20086;-70
2023/09/19 10:43:19;;;;;;;0.40;0.40;;;19.00;99.90;;;;;;5056940;28;19924;-71
2023/09/19 10:45:49;;;;;;;0.60;0.60;;;19.10;99.90;;;;;;5045707;28;20053;-70
2023/09/19 10:48:19;;;;;;;0.30;0.30;;;19.00;99.90;;;;;;5061261;28;20162;-71
2023/09/19 10:50:49;;;;;;;1.10;0.95;;;19.00;99.90;;;;;;5054310;28;20085;-71
2023/09/19 10:53:16;;;;;;;0.50;0.50;;;19.00;99.90;;;;;;5061755;28;20409;-71
2023/09/19 10:55:54;;;;;;;0.50;0.50;;;18.90;99.90;;;;;;5059303;28;20076;-71
2023/09/19 10:58:28;;;;;;;3.45;1.13;;;18.90;99.90;;;;;;5055712;28;20044;-71
2023/09/19 11:01:17;;;;;;;0.75;0.75;;;18.90;99.90;;;;;;5050245;28;20060;-72
2023/09/19 11:03:43;;;;;;;1.13;1.02;;;18.90;99.90;;;;;;5049080;28;20405;-71
2023/09/19 11:06:18;;;;;;;0.60;0.60;;;18.90;99.90;;;;;;5057967;28;20083;-71
2023/09/19 11:11:38;;;;;;;1.27;0.68;;;19.20;99.90;;;;;;5040824;28;20049;-71
2023/09/19 11:14:28;;;;;;;0.43;0.43;;;19.20;99.90;;;;;;5053713;28;20527;-71
2023/09/19 11:17:07;;;;;;;0.57;0.57;;;19.30;99.90;;;;;;5043867;28;20045;-72
2023/09/19 11:22:51;;;;;;;0.40;0.40;;;19.20;99.90;;;;;;5059324;28;20459;-71
2023/09/19 11:28:14;;;;;;;1.45;0.60;;;19.10;99.90;;;;;;5051816;28;20109;-71
2023/09/19 11:30:45;;;;;;;1.27;1.10;;;19.20;99.90;;;;;;5058828;28;20128;-71
2023/09/19 11:36:06;;;;;;;0.68;0.68;;;19.30;99.90;;;;;;5046434;28;20057;-71
2023/09/19 11:38:47;;;;;;;3.03;0.77;;;19.40;99.90;;;;;;5056914;28;20870;-71
2023/09/19 11:41:22;;;;;;;1.05;0.95;;;19.40;99.90;;;;;;5042342;28;20044;-70
2023/09/19 11:43:50;;;;;;;1.05;1.05;;;19.40;99.90;;;;;;5053547;28;20056;-71
2023/09/19 11:46:21;;;;;;;1.25;0.55;;;19.50;99.90;;;;;;5055648;28;20057;-71
2023/09/19 11:48:51;;;;;;;1.17;1.15;;;19.60;99.90;;;;;;5044521;28;20412;-71
2023/09/19 11:51:27;;;;;;;0.98;0.98;;;19.70;99.90;;;;;;5045460;28;20041;-70
2023/09/19 11:53:59;;;;;;;0.32;0.32;;;19.70;99.90;;;;;;5049977;28;20045;-71
2023/09/19 11:56:27;;;;;;;1.50;1.40;;;19.60;99.90;;;;;;5052342;28;20535;-70
2023/09/19 11:58:54;;;;;;;;;;;19.50;99.90;;;;;;5042050;28;20040;-71
2023/09/19 12:01:30;;;;;;;0.32;0.32;;;19.40;99.90;;;;;;5040337;28;19967;-71
2023/09/19 12:03:57;;;;;;;0.40;0.40;;;19.40;99.90;;;;;;5049613;28;20474;-71
2023/09/19 12:06:24;;;;;;;;;;;19.30;99.90;;;;;;5053582;28;20444;-71
2023/09/19 12:08:53;;;;;;;0.38;0.38;;;19.30;99.90;;;;;;5056748;28;19924;-71
2023/09/19 12:11:20;;;;;;;1.45;1.20;;;19.30;99.90;;;;;;5056540;28;20063;-71
2023/09/19 12:13:48;;;;;;;0.38;0.38;;;19.20;99.90;;;;;;5055245;28;20139;-71
2023/09/19 12:16:21;;;;;;;0.70;0.70;;;19.20;99.90;;;;;;5051031;28;20394;-72
2023/09/19 12:18:50;;;;;;;0.50;0.50;;;19.20;99.90;;;;;;5052924;28;20060;-72
2023/09/19 12:21:32;;;;;;;1.15;1.10;;;19.30;99.90;;;;;;5035253;28;20057;-71
2023/09/19 12:24:16;;;;;;;0.50;0.50;;;19.20;99.90;;;;;;5038188;28;20049;-71
2023/09/19 12:26:52;;;;;;;0.30;0.30;;;19.20;99.90;;;;;;5046238;28;20115;-71
2023/09/19 12:29:21;;;;;;;0.40;0.40;;;19.20;99.90;;;;;;5052566;28;20049;-71
2023/09/19 12:31:57;;;;;;;0.68;0.68;;;19.20;99.90;;;;;;5052419;28;20504;-71
2023/09/19 12:34:35;;;;;;;0.30;0.30;;;19.10;99.90;;;;;;5049085;28;20498;-71
2023/09/19 12:37:11;;;;;;;0.40;0.40;;;19.10;99.90;;;;;;5048855;28;20075;-71
2023/09/19 12:39:37;;;;;;;0.82;0.82;;;19.00;99.90;;;;;;5038081;28;20191;-71
2023/09/19 12:42:04;;;;;;;0.30;0.30;;;18.90;99.90;;;;;;5049147;28;20049;-71
2023/09/19 12:44:30;;;;;;;0.40;0.40;;;18.70;99.90;;;;;;5046219;28;20391;-71
2023/09/19 12:46:59;;;;;;;0.30;0.30;;;18.70;99.90;;;;;;5051748;28;20226;-71
2023/09/19 12:49:24;;;;;;;0.40;0.40;;;18.60;99.90;;;;;;5044710;28;20048;-71
2023/09/19 12:51:55;;;;;;;0.50;0.50;;;18.60;99.90;;;;;;5048946;28;20095;-71
2023/09/19 12:54:22;;;;;;;1.10;0.75;;;18.60;99.90;;;;;;5050887;28;20055;-71
2023/09/19 12:56:48;;;;;;;0.70;0.70;;;18.60;99.90;;;;;;5045758;28;20131;-71
2023/09/19 12:59:15;;;;;;;0.80;0.80;;;18.60;99.90;;;;;;5055890;28;20052;-72
2023/09/19 13:01:47;;;;;;;0.63;0.63;;;18.70;99.90;;;;;;5054804;28;20056;-72
2023/09/19 13:04:33;;;;;;;0.52;0.52;;;18.70;99.90;;;;;;5049861;28;20036;-72
2023/09/19 13:07:01;;;;;;;0.40;0.40;;;18.60;99.90;;;;;;5034963;28;20498;-72
2023/09/19 13:09:38;;;;;;;0.47;0.47;;;18.60;99.90;;;;;;5055826;28;20493;-72
2023/09/19 13:12:06;;;;;;;0.57;0.57;;;18.60;99.90;;;;;;5049985;28;20041;-71
2023/09/19 13:14:37;;;;;;;0.40;0.40;;;18.60;99.90;;;;;;5059210;28;20071;-72